Time;durP1;ratioP1;P1;durP2;ratioP2;P2;SDS_P1;SDS_P2;PMS_P1;PMS_P2;Temp;Humidity;BMP_temperature;BMP_pressure;BME280_temperature;BME280_humidity;BME280_pressure;Samples;Min_cycle;Max_cycle;Signal;HPM_P1;HPM_P2
2022/01/31 00:02:38;;;;;;;14.90;5.57;;;4.80;1.00;;;;;;6270986;28;20272;-59
2022/01/31 00:05:41;;;;;;;21.87;6.60;;;4.70;1.00;;;;;;6269216;28;20468;-57
2022/01/31 00:08:44;;;;;;;16.63;5.43;;;4.90;1.00;;;;;;6271180;28;20713;-58
2022/01/31 00:11:55;;;;;;;15.27;6.03;;;4.90;1.00;;;;;;6271127;28;20241;-57
2022/01/31 00:15:02;;;;;;;20.40;6.60;;;4.60;1.00;;;;;;6265569;28;20755;-58
2022/01/31 00:18:06;;;;;;;19.33;5.43;;;4.60;1.00;;;;;;6270746;28;20264;-58
2022/01/31 00:21:09;;;;;;;19.67;6.07;;;4.90;1.00;;;;;;6270826;28;20656;-59
2022/01/31 00:24:12;;;;;;;14.17;6.30;;;4.60;1.00;;;;;;6267890;28;20230;-58
2022/01/31 00:27:15;;;;;;;13.43;5.60;;;4.80;1.00;;;;;;6271655;28;20236;-58
2022/01/31 00:30:18;;;;;;;20.97;6.27;;;4.70;1.00;;;;;;6268896;28;20351;-58
2022/01/31 00:33:22;;;;;;;16.20;6.07;;;4.80;1.00;;;;;;6269487;28;20747;-58
2022/01/31 00:36:24;;;;;;;15.53;6.40;;;4.90;1.00;;;;;;6270630;28;20237;-59
2022/01/31 00:39:27;;;;;;;14.60;5.80;;;5.00;1.00;;;;;;6268072;28;20240;-58
2022/01/31 00:42:31;;;;;;;15.10;5.50;;;4.80;1.00;;;;;;6270824;28;20398;-58
2022/01/31 00:45:43;;;;;;;20.77;6.23;;;4.90;1.00;;;;;;6269570;28;20306;-58
2022/01/31 00:48:49;;;;;;;22.07;6.60;;;4.60;1.00;;;;;;6268834;28;20233;-58
2022/01/31 00:51:52;;;;;;;25.37;7.43;;;4.80;1.00;;;;;;6271247;28;20255;-58
2022/01/31 00:54:55;;;;;;;21.83;6.67;;;4.90;1.00;;;;;;6267358;28;20252;-56
2022/01/31 00:57:57;;;;;;;15.57;6.17;;;4.70;1.00;;;;;;6275160;28;20318;-59
2022/01/31 01:01:00;;;;;;;28.77;6.87;;;4.60;1.00;;;;;;6269416;28;20232;-58
2022/01/31 01:04:04;;;;;;;23.87;7.47;;;4.70;1.00;;;;;;6292533;28;20368;-58
2022/01/31 01:07:07;;;;;;;25.43;6.50;;;4.70;1.00;;;;;;6280056;28;20233;-58
2022/01/31 01:10:10;;;;;;;18.40;7.37;;;4.70;1.00;;;;;;6282563;28;20240;-57
2022/01/31 01:13:12;;;;;;;22.00;7.43;;;4.40;1.00;;;;;;6283533;28;20239;-57
2022/01/31 01:16:15;;;;;;;21.20;6.80;;;4.60;1.00;;;;;;6272418;28;20253;-58
2022/01/31 01:19:19;;;;;;;27.10;7.30;;;4.50;1.00;;;;;;6281095;28;20332;-57
2022/01/31 01:22:22;;;;;;;25.83;7.40;;;4.30;1.00;;;;;;6275273;28;20237;-59
2022/01/31 01:25:25;;;;;;;25.67;7.27;;;4.40;1.00;;;;;;6287184;28;20255;-57
2022/01/31 01:28:28;;;;;;;27.17;7.23;;;4.30;1.00;;;;;;6274190;28;20229;-59
2022/01/31 01:31:30;;;;;;;16.43;6.07;;;4.00;1.00;;;;;;6287738;28;20306;-57
2022/01/31 01:34:35;;;;;;;28.27;7.00;;;4.30;1.00;;;;;;6287071;28;20616;-58
2022/01/31 01:37:37;;;;;;;19.97;7.10;;;4.20;1.00;;;;;;6284498;28;20365;-58
2022/01/31 01:40:41;;;;;;;22.37;6.70;;;4.20;1.00;;;;;;6287096;28;20237;-58
2022/01/31 01:43:44;;;;;;;24.60;7.57;;;4.00;1.00;;;;;;6269194;28;20246;-59
2022/01/31 01:46:47;;;;;;;22.47;7.13;;;4.20;1.00;;;;;;6285738;28;20240;-59
2022/01/31 01:49:52;;;;;;;30.83;6.83;;;4.20;1.00;;;;;;6287250;28;20630;-58
2022/01/31 01:52:55;;;;;;;19.80;6.93;;;4.20;1.00;;;;;;6273920;28;20257;-59
2022/01/31 01:55:58;;;;;;;19.87;6.30;;;4.30;1.00;;;;;;6262271;28;20249;-59
2022/01/31 01:59:04;;;;;;;26.27;6.47;;;4.20;1.00;;;;;;6279079;28;20237;-59
2022/01/31 02:02:07;;;;;;;22.00;6.77;;;4.30;1.00;;;;;;6268180;28;20234;-58
2022/01/31 02:05:11;;;;;;;22.53;7.10;;;4.20;1.00;;;;;;6277346;28;20321;-59
2022/01/31 02:08:17;;;;;;;26.63;7.33;;;4.20;1.00;;;;;;6286999;28;20320;-57
2022/01/31 02:11:20;;;;;;;26.37;7.53;;;4.30;1.00;;;;;;6266145;28;20527;-58
2022/01/31 02:14:23;;;;;;;24.23;7.40;;;4.40;1.00;;;;;;6261242;28;20261;-57
2022/01/31 02:17:26;;;;;;;22.13;6.40;;;4.30;1.00;;;;;;6278532;28;20247;-58
2022/01/31 02:20:30;;;;;;;30.80;7.37;;;4.50;1.00;;;;;;6275387;28;20233;-58
2022/01/31 02:23:35;;;;;;;24.57;6.97;;;4.40;1.00;;;;;;6285635;28;20721;-58
2022/01/31 02:26:38;;;;;;;19.13;7.50;;;4.10;1.00;;;;;;6286271;28;20237;-58
2022/01/31 02:29:41;;;;;;;21.03;6.70;;;4.30;1.00;;;;;;6282085;28;20332;-59
2022/01/31 02:32:44;;;;;;;19.17;7.47;;;4.30;1.00;;;;;;6285043;28;20379;-59
2022/01/31 02:35:47;;;;;;;25.00;7.13;;;4.40;1.00;;;;;;6285720;28;20394;-59
2022/01/31 02:38:51;;;;;;;22.30;6.90;;;4.40;1.00;;;;;;6283936;28;20225;-59
2022/01/31 02:41:55;;;;;;;35.53;7.23;;;4.30;1.00;;;;;;6286584;28;20336;-58
2022/01/31 02:44:58;;;;;;;24.93;8.03;;;4.20;1.00;;;;;;6285701;28;20324;-57
2022/01/31 02:48:03;;;;;;;14.27;6.13;;;4.30;1.00;;;;;;6262402;28;20234;-57
2022/01/31 02:51:09;;;;;;;23.63;7.10;;;4.00;1.00;;;;;;6278306;28;20268;-57
2022/01/31 02:54:13;;;;;;;27.27;7.93;;;4.10;1.00;;;;;;6283181;28;20248;-57
2022/01/31 02:57:16;;;;;;;21.47;7.17;;;4.40;1.00;;;;;;6269087;28;20494;-59
2022/01/31 03:00:19;;;;;;;23.20;7.07;;;4.40;1.00;;;;;;6285211;28;20703;-57
2022/01/31 03:03:22;;;;;;;23.23;7.37;;;4.40;1.00;;;;;;6286001;28;20301;-57
2022/01/31 03:06:25;;;;;;;25.67;8.03;;;4.30;1.00;;;;;;6270875;28;20686;-54
2022/01/31 03:09:29;;;;;;;27.03;7.67;;;4.20;1.00;;;;;;6285385;28;20795;-57
2022/01/31 03:12:32;;;;;;;22.30;8.03;;;4.40;1.00;;;;;;6278429;28;20321;-57
2022/01/31 03:15:35;;;;;;;27.60;6.97;;;4.40;1.00;;;;;;6286244;28;20248;-57
2022/01/31 03:18:38;;;;;;;27.67;6.93;;;4.30;1.00;;;;;;6285863;28;20237;-58
2022/01/31 03:21:41;;;;;;;23.70;7.13;;;4.00;1.00;;;;;;6281121;28;20383;-57
2022/01/31 03:24:45;;;;;;;22.43;7.37;;;4.10;1.00;;;;;;6284581;28;20229;-57
2022/01/31 03:27:49;;;;;;;26.87;6.87;;;4.10;1.00;;;;;;6272679;28;20320;-57
2022/01/31 03:30:52;;;;;;;24.80;8.13;;;4.20;1.00;;;;;;6283042;28;20717;-57
2022/01/31 03:33:55;;;;;;;30.40;7.63;;;4.20;1.00;;;;;;6285522;28;20450;-57
2022/01/31 03:36:58;;;;;;;20.00;6.67;;;4.40;1.00;;;;;;6285037;28;20229;-58
2022/01/31 03:40:04;;;;;;;22.93;7.10;;;4.30;1.00;;;;;;6283884;28;20503;-56
2022/01/31 03:43:07;;;;;;;21.43;6.80;;;3.90;1.00;;;;;;6284776;28;20283;-58
2022/01/31 03:46:10;;;;;;;25.53;7.73;;;4.40;1.00;;;;;;6283173;28;20741;-58
2022/01/31 03:49:12;;;;;;;31.93;7.40;;;4.30;1.00;;;;;;6283972;28;20737;-58
2022/01/31 03:52:15;;;;;;;33.87;7.70;;;4.20;1.00;;;;;;6285330;28;20339;-57
2022/01/31 03:55:20;;;;;;;25.53;7.07;;;4.10;1.00;;;;;;6262300;28;20302;-56
2022/01/31 03:58:23;;;;;;;23.17;6.90;;;4.00;1.00;;;;;;6259920;28;20241;-58
2022/01/31 04:01:26;;;;;;;20.30;8.57;;;4.10;1.00;;;;;;6259595;28;20492;-57
2022/01/31 04:04:29;;;;;;;28.93;7.03;;;4.10;1.00;;;;;;6277673;28;20323;-57
2022/01/31 04:07:32;;;;;;;23.50;7.60;;;4.20;1.00;;;;;;6283088;28;20797;-58
2022/01/31 04:10:37;;;;;;;24.20;8.00;;;4.00;1.00;;;;;;6282933;28;20233;-57
2022/01/31 04:13:39;;;;;;;23.20;7.90;;;4.10;1.00;;;;;;6261442;28;20703;-58
2022/01/31 04:16:43;;;;;;;20.13;6.87;;;4.00;1.00;;;;;;6269498;28;20252;-58
2022/01/31 04:19:46;;;;;;;22.70;7.33;;;3.90;1.00;;;;;;6280866;28;20225;-58
2022/01/31 04:22:53;;;;;;;21.47;7.40;;;4.00;1.00;;;;;;6282987;28;20652;-56
2022/01/31 04:26:07;;;;;;;26.60;7.73;;;3.80;1.00;;;;;;6283735;28;20355;-58
2022/01/31 04:29:14;;;;;;;23.20;7.40;;;3.70;1.00;;;;;;6282185;28;20287;-57
2022/01/31 04:32:17;;;;;;;29.07;6.87;;;3.90;1.00;;;;;;6262006;28;20246;-57
2022/01/31 04:35:20;;;;;;;23.97;7.27;;;3.90;1.00;;;;;;6282987;28;20631;-58
2022/01/31 04:38:23;;;;;;;25.87;8.33;;;3.60;1.00;;;;;;6273836;28;20479;-58
2022/01/31 04:41:27;;;;;;;31.83;8.37;;;3.80;1.00;;;;;;6282313;28;20363;-59
2022/01/31 04:44:30;;;;;;;23.90;7.83;;;3.80;1.00;;;;;;6278944;28;20344;-58
2022/01/31 04:47:33;;;;;;;31.23;8.77;;;4.00;1.00;;;;;;6282006;28;20513;-59
2022/01/31 04:50:35;;;;;;;20.17;7.27;;;3.90;1.00;;;;;;6278520;28;20237;-59
2022/01/31 04:53:38;;;;;;;25.57;8.30;;;3.60;1.00;;;;;;6274730;28;20603;-58
2022/01/31 04:56:43;;;;;;;24.07;7.47;;;3.80;1.00;;;;;;6276174;28;20241;-57
2022/01/31 04:59:48;;;;;;;19.90;7.17;;;4.00;1.00;;;;;;6276562;28;20735;-57
2022/01/31 05:02:51;;;;;;;23.93;8.00;;;3.80;1.00;;;;;;6281815;28;20461;-58
2022/01/31 05:05:53;;;;;;;24.40;8.33;;;3.80;1.00;;;;;;6281536;28;20752;-58
2022/01/31 05:08:56;;;;;;;22.87;7.57;;;3.90;1.00;;;;;;6283479;28;20875;-58
2022/01/31 05:12:00;;;;;;;31.00;8.27;;;3.80;1.00;;;;;;6277333;28;20268;-58
2022/01/31 05:15:04;;;;;;;18.43;7.07;;;4.00;1.00;;;;;;6282631;28;20240;-57
2022/01/31 05:18:07;;;;;;;22.67;7.53;;;3.80;1.00;;;;;;6287508;28;20405;-58
2022/01/31 05:21:09;;;;;;;23.27;8.13;;;4.10;1.00;;;;;;6275517;28;20238;-58
2022/01/31 05:24:12;;;;;;;35.40;7.87;;;4.00;1.00;;;;;;6286138;28;20247;-58
2022/01/31 05:27:16;;;;;;;28.00;8.50;;;3.90;1.00;;;;;;6279946;28;20233;-59
2022/01/31 05:30:21;;;;;;;29.60;7.87;;;4.10;1.00;;;;;;6278788;28;20261;-58
2022/01/31 05:33:23;;;;;;;20.73;6.90;;;4.00;1.00;;;;;;6277177;28;20504;-58
2022/01/31 05:36:26;;;;;;;27.33;7.27;;;3.90;1.00;;;;;;6275117;28;20226;-59
2022/01/31 05:39:29;;;;;;;22.73;7.00;;;3.80;1.00;;;;;;6279845;28;20503;-57
2022/01/31 05:42:33;;;;;;;30.63;7.87;;;4.00;1.00;;;;;;6283041;28;20336;-57
2022/01/31 05:45:35;;;;;;;31.43;7.70;;;3.90;1.00;;;;;;6281451;28;20361;-58
2022/01/31 05:48:38;;;;;;;27.20;8.07;;;3.90;1.00;;;;;;6283907;28;20283;-59
2022/01/31 05:51:49;;;;;;;24.77;8.77;;;4.00;1.00;;;;;;6286399;28;20251;-58
2022/01/31 05:54:52;;;;;;;32.77;7.90;;;3.80;1.00;;;;;;6269127;28;20291;-52
2022/01/31 05:57:56;;;;;;;28.80;7.27;;;3.70;1.00;;;;;;6286718;28;20229;-57
2022/01/31 06:00:59;;;;;;;27.33;7.83;;;3.80;1.00;;;;;;6279353;28;20307;-58
2022/01/31 06:04:02;;;;;;;25.37;8.70;;;4.00;1.00;;;;;;6287212;28;20241;-59
2022/01/31 06:07:04;;;;;;;25.07;7.70;;;3.90;1.00;;;;;;6280647;28;20478;-60
2022/01/31 06:10:08;;;;;;;25.43;7.50;;;3.70;1.00;;;;;;6285727;28;20233;-59
2022/01/31 06:13:12;;;;;;;27.03;8.07;;;3.70;1.00;;;;;;6279413;28;20253;-59
2022/01/31 06:16:15;;;;;;;27.87;9.27;;;3.80;1.00;;;;;;6277476;28;20229;-58
2022/01/31 06:19:18;;;;;;;21.00;7.97;;;3.70;1.00;;;;;;6280817;28;20237;-58
2022/01/31 06:22:21;;;;;;;31.23;8.47;;;3.50;1.00;;;;;;6283664;28;20233;-59
2022/01/31 06:25:24;;;;;;;23.00;7.53;;;3.70;1.00;;;;;;6281933;28;20300;-60
2022/01/31 06:28:28;;;;;;;27.47;8.07;;;3.70;1.00;;;;;;6278684;28;20240;-59
2022/01/31 06:31:31;;;;;;;18.57;7.20;;;3.40;1.00;;;;;;6286666;28;20248;-58
2022/01/31 06:34:34;;;;;;;25.30;7.33;;;3.70;1.00;;;;;;6287454;28;20275;-58
2022/01/31 06:37:37;;;;;;;26.90;8.20;;;3.70;1.00;;;;;;6276365;28;20324;-57
2022/01/31 06:40:40;;;;;;;24.30;7.70;;;3.40;1.00;;;;;;6283025;28;20226;-58
2022/01/31 06:43:45;;;;;;;25.47;7.97;;;3.40;1.00;;;;;;6285481;28;20233;-58
2022/01/31 06:46:48;;;;;;;20.23;7.73;;;3.50;1.00;;;;;;6284962;28;20321;-59
2022/01/31 06:49:51;;;;;;;25.93;8.50;;;3.60;1.00;;;;;;6272426;28;20490;-58
2022/01/31 06:52:56;;;;;;;23.83;8.17;;;3.60;1.00;;;;;;6277843;28;20578;-59
2022/01/31 06:55:59;;;;;;;23.80;8.23;;;3.20;1.00;;;;;;6279425;28;20600;-58
2022/01/31 06:59:03;;;;;;;29.47;8.13;;;3.50;1.00;;;;;;6277513;28;20234;-59
2022/01/31 07:02:06;;;;;;;30.80;7.70;;;3.40;1.00;;;;;;6280027;28;20237;-59
2022/01/31 07:05:09;;;;;;;24.20;7.40;;;3.40;1.00;;;;;;6278894;28;20407;-58
2022/01/31 07:08:13;;;;;;;19.20;7.67;;;3.20;1.00;;;;;;6281391;28;20749;-58
2022/01/31 07:11:21;;;;;;;28.30;7.50;;;3.30;1.00;;;;;;6281940;28;20263;-58
2022/01/31 07:14:31;;;;;;;26.57;7.50;;;3.40;1.00;;;;;;6282282;28;20241;-59
2022/01/31 07:17:35;;;;;;;26.43;8.83;;;3.20;1.00;;;;;;6277500;28;20259;-59
2022/01/31 07:20:40;;;;;;;32.57;9.30;;;3.40;1.00;;;;;;6273903;28;21672;-59
2022/01/31 07:24:03;;;;;;;21.27;8.33;;;3.60;1.00;;;;;;6281543;28;20302;-58
2022/01/31 07:27:09;;;;;;;27.67;8.33;;;3.70;1.00;;;;;;6281327;28;20244;-59
2022/01/31 07:30:13;;;;;;;23.33;8.00;;;3.50;1.00;;;;;;6283031;28;20488;-59
2022/01/31 07:33:16;;;;;;;21.97;8.07;;;3.20;1.00;;;;;;6276877;28;20241;-58
2022/01/31 07:36:19;;;;;;;21.50;7.63;;;3.30;1.00;;;;;;6272237;28;20231;-58
2022/01/31 07:39:22;;;;;;;25.00;7.43;;;3.30;1.00;;;;;;6282882;28;20235;-57
2022/01/31 07:42:25;;;;;;;19.97;8.10;;;3.50;1.00;;;;;;6283088;28;20382;-59
2022/01/31 07:45:29;;;;;;;20.00;7.80;;;3.50;1.00;;;;;;6272869;28;20518;-57
2022/01/31 07:48:32;;;;;;;24.03;8.57;;;3.50;1.00;;;;;;6278433;28;20241;-59
2022/01/31 07:51:38;;;;;;;29.77;9.67;;;3.70;1.00;;;;;;6280313;28;20390;-58
2022/01/31 07:54:43;;;;;;;23.37;8.47;;;3.50;1.00;;;;;;6275070;28;20722;-59
2022/01/31 07:57:47;;;;;;;30.20;8.07;;;3.30;1.00;;;;;;6282492;28;20270;-58
2022/01/31 08:00:52;;;;;;;33.73;8.73;;;3.40;1.00;;;;;;6278902;28;20256;-58
2022/01/31 08:03:55;;;;;;;25.70;7.97;;;3.30;1.00;;;;;;6282337;28;20233;-59
2022/01/31 08:06:57;;;;;;;26.97;8.83;;;3.60;1.00;;;;;;6282395;28;20249;-59
2022/01/31 08:10:02;;;;;;;31.77;8.43;;;3.30;1.00;;;;;;6282517;28;20320;-63
2022/01/31 08:13:07;;;;;;;26.00;8.37;;;3.40;1.00;;;;;;6276525;28;20579;-59
2022/01/31 08:16:12;;;;;;;23.00;8.40;;;3.30;1.00;;;;;;6271621;28;20789;-58
2022/01/31 08:19:15;;;;;;;24.47;8.67;;;3.20;1.00;;;;;;6276621;28;20614;-59
2022/01/31 08:22:38;;;;;;;32.57;9.47;;;3.50;1.00;;;;;;6278337;28;20541;-59
2022/01/31 08:25:47;;;;;;;22.17;9.57;;;3.60;1.00;;;;;;6281233;28;20729;-58
2022/01/31 08:28:55;;;;;;;29.27;9.40;;;3.50;1.00;;;;;;6277365;28;20240;-58
2022/01/31 08:32:05;;;;;;;25.07;8.43;;;3.40;1.00;;;;;;6282348;28;20714;-59
2022/01/31 08:38:30;;;;;;;26.83;9.80;;;3.50;1.00;;;;;;6279941;28;20241;-58
2022/01/31 08:41:33;;;;;;;24.40;8.40;;;3.60;1.00;;;;;;6275575;28;20256;-58
2022/01/31 08:44:36;;;;;;;31.60;8.50;;;3.40;1.00;;;;;;6283792;28;20328;-57
2022/01/31 08:47:41;;;;;;;31.77;9.20;;;3.70;1.00;;;;;;6279947;28;20387;-58
2022/01/31 08:50:44;;;;;;;25.03;8.60;;;3.50;1.00;;;;;;6277113;28;20816;-57
2022/01/31 08:53:48;;;;;;;22.90;8.97;;;3.80;1.00;;;;;;6280758;28;20845;-58
2022/01/31 08:56:50;;;;;;;20.90;8.30;;;3.70;1.00;;;;;;6282871;28;20346;-58
2022/01/31 08:59:54;;;;;;;21.27;9.13;;;3.60;1.00;;;;;;6282840;28;20245;-57
2022/01/31 09:03:05;;;;;;;22.77;8.90;;;3.60;1.00;;;;;;6276633;28;20324;-58
2022/01/31 09:06:09;;;;;;;27.73;9.37;;;3.90;1.00;;;;;;6277997;28;20469;-57
2022/01/31 09:09:17;;;;;;;32.27;9.90;;;3.80;1.00;;;;;;6282373;28;20314;-57
2022/01/31 09:12:19;;;;;;;27.70;8.80;;;4.00;1.00;;;;;;6282846;28;20539;-58
2022/01/31 09:15:22;;;;;;;31.17;9.83;;;4.20;1.00;;;;;;6281004;28;20236;-57
2022/01/31 09:18:26;;;;;;;21.03;8.97;;;4.00;1.00;;;;;;6279412;28;20730;-57
2022/01/31 09:21:30;;;;;;;22.67;8.30;;;4.20;1.00;;;;;;6280166;28;20728;-57
2022/01/31 09:24:37;;;;;;;25.60;9.40;;;4.20;1.00;;;;;;6277905;28;20328;-58
2022/01/31 09:27:40;;;;;;;21.57;8.30;;;4.00;1.00;;;;;;6280511;28;20336;-57
2022/01/31 09:30:43;;;;;;;33.03;8.43;;;4.20;1.00;;;;;;6282268;28;20236;-58
2022/01/31 09:33:48;;;;;;;26.70;9.27;;;4.00;1.00;;;;;;6277288;28;20233;-57
2022/01/31 09:36:51;;;;;;;20.93;8.13;;;4.20;1.00;;;;;;6278422;28;20324;-57
2022/01/31 09:40:01;;;;;;;19.00;7.83;;;4.40;1.00;;;;;;6282048;28;20316;-58
2022/01/31 09:43:23;;;;;;;22.17;8.23;;;4.60;1.00;;;;;;6279948;28;20247;-57
2022/01/31 09:49:50;;;;;;;29.73;9.03;;;4.50;1.00;;;;;;6261964;28;20748;-58
2022/01/31 09:52:53;;;;;;;19.40;8.40;;;4.40;1.00;;;;;;6287647;28;20239;-58
2022/01/31 09:55:56;;;;;;;31.63;8.93;;;4.20;1.00;;;;;;6283066;28;20765;-57
2022/01/31 09:58:59;;;;;;;27.33;10.00;;;4.40;1.00;;;;;;6284075;28;20230;-58
2022/01/31 10:02:09;;;;;;;26.93;9.60;;;4.60;1.00;;;;;;6286986;28;20780;-58
2022/01/31 10:05:28;;;;;;;21.60;9.30;;;4.60;1.00;;;;;;6279105;28;20323;-58
2022/01/31 10:08:31;;;;;;;27.70;9.60;;;4.50;1.00;;;;;;6281164;28;20250;-58
2022/01/31 10:11:47;;;;;;;26.80;9.40;;;4.50;1.00;;;;;;6287241;28;20241;-60
2022/01/31 10:18:11;;;;;;;24.33;8.33;;;4.80;1.00;;;;;;6282707;28;20229;-58
2022/01/31 10:21:55;;;;;;;26.37;8.83;;;4.80;1.00;;;;;;6276805;28;20245;-58
2022/01/31 10:25:01;;;;;;;25.90;9.13;;;4.70;1.00;;;;;;6284717;28;20233;-58
2022/01/31 10:28:11;;;;;;;16.63;8.13;;;4.80;1.00;;;;;;6280264;28;20239;-57
2022/01/31 10:31:18;;;;;;;24.03;8.50;;;4.70;1.00;;;;;;6284147;28;20463;-57
2022/01/31 10:34:23;;;;;;;25.93;9.27;;;4.80;1.00;;;;;;6279479;28;20226;-57
2022/01/31 10:37:30;;;;;;;28.70;8.57;;;5.00;1.00;;;;;;6284273;28;20619;-58
2022/01/31 10:44:54;;;;;;;20.13;8.73;;;5.00;1.00;;;;;;6281036;28;20324;-58
2022/01/31 10:54:50;;;;;;;30.57;9.23;;;5.00;1.00;;;;;;6277371;28;20228;-58
2022/01/31 10:58:03;;;;;;;23.87;7.80;;;4.80;1.00;;;;;;6284027;28;20234;-57
2022/01/31 11:01:13;;;;;;;21.67;8.17;;;5.10;1.00;;;;;;6281618;28;20376;-58
2022/01/31 11:04:16;;;;;;;21.33;8.20;;;5.00;1.00;;;;;;6284443;28;20241;-58
2022/01/31 11:07:21;;;;;;;30.03;8.57;;;5.30;1.00;;;;;;6284723;28;20241;-58
2022/01/31 11:10:29;;;;;;;22.70;9.20;;;5.00;1.00;;;;;;6276777;28;20241;-58
2022/01/31 11:13:34;;;;;;;15.27;8.07;;;5.20;1.00;;;;;;6284343;28;20233;-59
2022/01/31 11:16:40;;;;;;;32.43;9.77;;;5.30;1.00;;;;;;6267888;28;20292;-59
2022/01/31 11:19:48;;;;;;;23.07;9.13;;;5.20;1.00;;;;;;6283012;28;20233;-58
2022/01/31 11:22:57;;;;;;;20.23;8.80;;;5.10;1.00;;;;;;6279326;28;20367;-57
2022/01/31 11:26:02;;;;;;;20.07;7.57;;;5.40;1.00;;;;;;6271195;28;20610;-58
2022/01/31 11:29:07;;;;;;;22.67;7.73;;;5.50;1.00;;;;;;6277458;28;20871;-59
2022/01/31 11:32:10;;;;;;;18.70;8.50;;;5.60;1.00;;;;;;6278951;28;20824;-59
2022/01/31 11:35:13;;;;;;;17.60;7.43;;;5.50;1.00;;;;;;6276012;28;20330;-59
2022/01/31 11:38:17;;;;;;;25.47;8.80;;;5.40;1.00;;;;;;6278585;28;20262;-59
2022/01/31 11:41:21;;;;;;;20.03;8.33;;;5.80;1.00;;;;;;6279423;28;20347;-59
2022/01/31 11:44:30;;;;;;;16.63;7.73;;;5.90;1.00;;;;;;6271772;28;20241;-59
2022/01/31 11:47:33;;;;;;;21.17;8.37;;;5.90;1.00;;;;;;6280540;28;20238;-58
2022/01/31 11:50:43;;;;;;;26.43;9.47;;;5.60;1.00;;;;;;6278594;28;20242;-57
2022/01/31 11:53:46;;;;;;;16.70;8.80;;;5.80;1.00;;;;;;6281451;28;20241;-60
2022/01/31 11:56:54;;;;;;;27.07;8.97;;;6.10;1.00;;;;;;6282921;28;20260;-59
2022/01/31 11:59:58;;;;;;;18.27;7.27;;;6.30;1.00;;;;;;6282156;28;20638;-58
2022/01/31 12:03:04;;;;;;;19.50;8.40;;;6.60;1.00;;;;;;6280968;28;20238;-59
2022/01/31 12:06:10;;;;;;;25.93;8.33;;;6.70;1.00;;;;;;6282716;28;20310;-59
2022/01/31 12:09:18;;;;;;;22.50;8.63;;;6.60;1.00;;;;;;6281781;28;20233;-58
2022/01/31 12:12:40;;;;;;;26.37;9.23;;;6.50;1.00;;;;;;6271331;28;20325;-58
2022/01/31 12:16:01;;;;;;;20.03;8.77;;;6.40;1.00;;;;;;6277184;28;20790;-57
2022/01/31 12:19:28;;;;;;;22.97;8.83;;;6.70;1.00;;;;;;6278479;28;20846;-59
2022/01/31 12:22:44;;;;;;;23.20;8.80;;;6.70;1.00;;;;;;6274053;28;20336;-58
2022/01/31 12:25:46;;;;;;;31.93;9.93;;;6.50;1.00;;;;;;6276995;28;20701;-59
2022/01/31 12:28:54;;;;;;;29.97;9.93;;;7.00;1.00;;;;;;6281983;28;20257;-58
2022/01/31 12:31:58;;;;;;;19.93;8.60;;;6.80;1.00;;;;;;6282552;28;20241;-57
2022/01/31 12:35:04;;;;;;;24.00;9.47;;;6.70;1.00;;;;;;6277855;28;20243;-59
2022/01/31 12:38:07;;;;;;;23.60;8.93;;;6.70;1.00;;;;;;6276451;28;20240;-59
2022/01/31 12:41:31;;;;;;;30.60;9.23;;;6.70;1.00;;;;;;6280913;28;20475;-59
2022/01/31 12:44:46;;;;;;;16.20;8.63;;;6.60;1.00;;;;;;6270520;28;20237;-59
2022/01/31 12:48:15;;;;;;;27.13;8.57;;;6.60;1.00;;;;;;6281670;28;20230;-59
2022/01/31 12:51:20;;;;;;;24.00;8.80;;;6.60;1.00;;;;;;6269108;28;20706;-55
2022/01/31 12:54:23;;;;;;;25.43;8.37;;;6.60;1.00;;;;;;6273342;28;20389;-59
2022/01/31 12:57:26;;;;;;;25.77;8.77;;;6.60;1.00;;;;;;6281149;28;20240;-59
2022/01/31 13:00:38;;;;;;;24.93;8.23;;;6.50;1.00;;;;;;6278964;28;20288;-59
2022/01/31 13:04:03;;;;;;;20.43;7.77;;;6.50;1.00;;;;;;6280323;28;20248;-59
2022/01/31 13:07:08;;;;;;;34.17;9.00;;;6.40;1.00;;;;;;6277101;28;20233;-60
2022/01/31 13:10:37;;;;;;;30.87;8.30;;;6.50;1.00;;;;;;6279522;28;20264;-59
2022/01/31 13:13:40;;;;;;;18.63;7.60;;;6.40;1.00;;;;;;6281110;28;20542;-57
2022/01/31 13:17:01;;;;;;;18.70;8.70;;;6.60;1.00;;;;;;6279370;28;20229;-59
2022/01/31 13:20:05;;;;;;;23.40;8.73;;;6.40;1.00;;;;;;6282865;28;20741;-59
2022/01/31 13:23:08;;;;;;;23.00;8.57;;;6.70;1.00;;;;;;6274071;28;20401;-59
2022/01/31 13:26:11;;;;;;;21.37;7.47;;;6.70;1.00;;;;;;6284272;28;20229;-58
2022/01/31 13:29:30;;;;;;;24.57;9.03;;;6.80;1.00;;;;;;6283377;28;20310;-57
2022/01/31 13:32:35;;;;;;;23.00;9.20;;;6.70;1.00;;;;;;6278239;28;20254;-59
2022/01/31 13:35:40;;;;;;;24.83;8.17;;;6.80;1.00;;;;;;6284001;28;20237;-59
2022/01/31 13:38:44;;;;;;;19.07;8.47;;;6.60;1.00;;;;;;6284759;28;20237;-59
2022/01/31 13:41:48;;;;;;;28.40;8.47;;;6.80;1.00;;;;;;6278784;28;20705;-58
2022/01/31 13:44:54;;;;;;;22.03;8.33;;;6.70;1.00;;;;;;6277734;28;20230;-59
2022/01/31 13:48:01;;;;;;;26.30;9.03;;;6.60;1.00;;;;;;6278193;28;20286;-60
2022/01/31 13:51:11;;;;;;;17.83;8.20;;;6.60;1.00;;;;;;6282657;28;20257;-60
2022/01/31 13:54:16;;;;;;;22.47;9.03;;;6.30;1.00;;;;;;6275571;28;20246;-60
2022/01/31 13:57:19;;;;;;;25.47;8.23;;;6.30;1.00;;;;;;6282676;28;20346;-58
2022/01/31 14:00:36;;;;;;;25.70;7.83;;;6.30;1.00;;;;;;6280368;28;20613;-59
2022/01/31 14:03:43;;;;;;;26.47;8.27;;;6.00;1.00;;;;;;6280601;28;20264;-59
2022/01/31 14:06:46;;;;;;;20.10;8.07;;;6.20;1.00;;;;;;6278308;28;20793;-59
2022/01/31 14:09:48;;;;;;;28.23;8.80;;;6.10;1.00;;;;;;6281889;28;20256;-58
2022/01/31 14:12:57;;;;;;;15.73;7.67;;;6.10;1.00;;;;;;6278755;28;20743;-59
2022/01/31 14:15:59;;;;;;;24.50;8.37;;;5.90;1.00;;;;;;6283709;28;20240;-58
2022/01/31 14:19:05;;;;;;;23.10;8.53;;;6.10;1.00;;;;;;6286098;28;20511;-59
2022/01/31 14:22:09;;;;;;;27.03;9.17;;;6.00;1.00;;;;;;6281237;28;20234;-58
2022/01/31 14:25:13;;;;;;;17.23;8.23;;;5.90;1.00;;;;;;6283953;28;20229;-59
2022/01/31 14:28:18;;;;;;;26.40;9.33;;;6.10;1.00;;;;;;6279482;28;20634;-59
2022/01/31 14:31:32;;;;;;;27.07;9.23;;;6.00;1.00;;;;;;6280117;28;20252;-59
2022/01/31 14:34:36;;;;;;;18.37;8.40;;;5.90;1.00;;;;;;6285392;28;20237;-58
2022/01/31 14:37:49;;;;;;;21.03;8.67;;;5.90;1.00;;;;;;6276868;28;20246;-57
2022/01/31 14:41:11;;;;;;;17.60;8.47;;;5.80;1.00;;;;;;6277530;28;20229;-59
2022/01/31 14:47:42;;;;;;;20.30;8.30;;;5.60;1.00;;;;;;6278653;28;20230;-59
2022/01/31 14:50:46;;;;;;;18.33;7.70;;;5.30;1.00;;;;;;6278257;28;20604;-59
2022/01/31 14:53:54;;;;;;;19.73;8.87;;;5.50;1.00;;;;;;6283614;28;20371;-59
2022/01/31 14:56:57;;;;;;;21.80;7.83;;;5.60;1.00;;;;;;6281255;28;20785;-59
2022/01/31 15:00:01;;;;;;;15.77;7.43;;;5.60;1.00;;;;;;6274252;28;20249;-58
2022/01/31 15:03:05;;;;;;;19.83;8.73;;;5.50;1.00;;;;;;6275486;28;20237;-58
2022/01/31 15:06:10;;;;;;;27.43;8.70;;;5.50;1.00;;;;;;6281184;28;20229;-59
2022/01/31 15:09:13;;;;;;;17.77;7.77;;;5.20;1.00;;;;;;6283110;28;20228;-58
2022/01/31 15:12:16;;;;;;;14.53;7.10;;;5.20;1.00;;;;;;6279379;28;20256;-58
2022/01/31 15:15:20;;;;;;;26.93;7.80;;;5.10;1.00;;;;;;6273470;28;20257;-59
2022/01/31 15:18:23;;;;;;;26.67;8.63;;;5.00;1.00;;;;;;6282592;28;20237;-59
2022/01/31 15:21:30;;;;;;;21.57;8.43;;;5.10;1.00;;;;;;6272739;28;20244;-58
2022/01/31 15:24:33;;;;;;;21.33;8.00;;;5.00;1.00;;;;;;6278321;28;20263;-59
2022/01/31 15:27:36;;;;;;;21.57;8.10;;;4.90;1.00;;;;;;6278351;28;20721;-58
2022/01/31 15:30:39;;;;;;;27.70;8.10;;;4.90;1.00;;;;;;6282205;28;20450;-58
2022/01/31 15:33:42;;;;;;;21.33;9.13;;;5.00;1.00;;;;;;6278575;28;20510;-59
2022/01/31 15:36:46;;;;;;;25.53;8.07;;;4.70;1.00;;;;;;6283131;28;20233;-58
2022/01/31 15:39:49;;;;;;;22.63;7.93;;;4.80;1.00;;;;;;6282957;28;20241;-59
2022/01/31 15:42:54;;;;;;;21.40;7.97;;;4.80;1.00;;;;;;6283263;28;20229;-59
2022/01/31 15:45:57;;;;;;;23.83;8.90;;;4.90;1.00;;;;;;6283109;28;20282;-58
2022/01/31 15:49:01;;;;;;;22.63;8.30;;;4.70;1.00;;;;;;6270098;28;20229;-59
2022/01/31 15:52:05;;;;;;;20.27;7.93;;;4.80;1.00;;;;;;6275033;28;21028;-60
2022/01/31 15:55:09;;;;;;;26.60;8.10;;;4.80;1.00;;;;;;6276275;28;20253;-58
2022/01/31 15:58:15;;;;;;;24.90;7.87;;;4.70;1.00;;;;;;6279828;28;20249;-59
2022/01/31 16:01:18;;;;;;;21.63;8.57;;;4.60;1.00;;;;;;6276889;28;20288;-58
2022/01/31 16:04:21;;;;;;;19.97;8.10;;;4.70;1.00;;;;;;6280526;28;20381;-59
2022/01/31 16:07:25;;;;;;;21.07;8.13;;;4.70;1.00;;;;;;6270980;28;20367;-59
2022/01/31 16:10:27;;;;;;;20.80;8.43;;;4.50;1.00;;;;;;6278597;28;20299;-59
2022/01/31 16:13:30;;;;;;;20.93;7.93;;;4.60;1.00;;;;;;6276086;28;20800;-59
2022/01/31 16:16:33;;;;;;;23.93;8.03;;;4.70;1.00;;;;;;6277370;28;20691;-59
2022/01/31 16:19:37;;;;;;;21.13;9.07;;;4.50;1.00;;;;;;6274121;28;20237;-59
2022/01/31 16:22:41;;;;;;;25.80;8.63;;;4.70;1.00;;;;;;6280878;28;20252;-57
2022/01/31 16:25:44;;;;;;;18.07;8.63;;;4.50;1.00;;;;;;6282389;28;20308;-58
2022/01/31 16:28:47;;;;;;;21.73;9.20;;;4.50;1.00;;;;;;6277526;28;20381;-58
2022/01/31 16:31:49;;;;;;;21.67;9.00;;;4.30;1.00;;;;;;6276444;28;20225;-57
2022/01/31 16:34:53;;;;;;;24.30;8.97;;;4.30;1.00;;;;;;6275275;28;20236;-57
2022/01/31 16:37:57;;;;;;;23.13;9.57;;;4.30;1.00;;;;;;6268415;28;20670;-58
2022/01/31 16:41:00;;;;;;;20.60;9.70;;;4.10;1.00;;;;;;6278041;28;20820;-57
2022/01/31 16:44:04;;;;;;;21.47;10.10;;;4.40;1.00;;;;;;6272434;28;20301;-58